sensor_id;sensor_type;location;lat;lon;timestamp;P1;durP1;ratioP1;P2;durP2;ratioP2
25435;SDS011;13363;52.772;-3.890;2022-08-21T00:00:22;13.30;;;2.43;;
25435;SDS011;13363;52.772;-3.890;2022-08-21T00:02:52;16.07;;;3.37;;
25435;SDS011;13363;52.772;-3.890;2022-08-21T00:05:22;14.77;;;4.13;;
25435;SDS011;13363;52.772;-3.890;2022-08-21T00:07:49;13.23;;;2.70;;
25435;SDS011;13363;52.772;-3.890;2022-08-21T00:10:16;7.90;;;2.70;;
25435;SDS011;13363;52.772;-3.890;2022-08-21T00:12:42;13.47;;;3.43;;
25435;SDS011;13363;52.772;-3.890;2022-08-21T00:15:10;9.77;;;3.10;;
25435;SDS011;13363;52.772;-3.890;2022-08-21T00:17:38;9.90;;;3.27;;
25435;SDS011;13363;52.772;-3.890;2022-08-21T00:20:05;13.07;;;3.10;;
25435;SDS011;13363;52.772;-3.890;2022-08-21T00:22:34;19.67;;;3.93;;
25435;SDS011;13363;52.772;-3.890;2022-08-21T00:25:00;12.63;;;3.60;;
25435;SDS011;13363;52.772;-3.890;2022-08-21T00:27:30;15.83;;;3.30;;
25435;SDS011;13363;52.772;-3.890;2022-08-21T00:30:04;12.17;;;3.20;;
25435;SDS011;13363;52.772;-3.890;2022-08-21T00:32:31;10.37;;;3.13;;
25435;SDS011;13363;52.772;-3.890;2022-08-21T00:34:58;21.97;;;4.13;;
25435;SDS011;13363;52.772;-3.890;2022-08-21T00:37:24;15.03;;;3.73;;
25435;SDS011;13363;52.772;-3.890;2022-08-21T00:39:50;14.17;;;3.80;;
25435;SDS011;13363;52.772;-3.890;2022-08-21T00:42:16;12.77;;;3.20;;
25435;SDS011;13363;52.772;-3.890;2022-08-21T00:44:46;13.40;;;3.17;;
25435;SDS011;13363;52.772;-3.890;2022-08-21T00:47:15;21.70;;;4.90;;
25435;SDS011;13363;52.772;-3.890;2022-08-21T00:49:42;20.07;;;3.00;;
25435;SDS011;13363;52.772;-3.890;2022-08-21T00:52:14;17.17;;;4.07;;
25435;SDS011;13363;52.772;-3.890;2022-08-21T00:54:44;18.20;;;3.53;;
25435;SDS011;13363;52.772;-3.890;2022-08-21T00:57:13;13.57;;;2.97;;
25435;SDS011;13363;52.772;-3.890;2022-08-21T00:59:41;9.57;;;3.57;;
25435;SDS011;13363;52.772;-3.890;2022-08-21T01:02:11;12.47;;;3.30;;
25435;SDS011;13363;52.772;-3.890;2022-08-21T01:04:37;12.23;;;3.50;;
25435;SDS011;13363;52.772;-3.890;2022-08-21T01:07:03;14.37;;;3.33;;
25435;SDS011;13363;52.772;-3.890;2022-08-21T01:09:29;12.23;;;3.30;;
25435;SDS011;13363;52.772;-3.890;2022-08-21T01:11:55;14.50;;;3.70;;
25435;SDS011;13363;52.772;-3.890;2022-08-21T01:14:21;11.00;;;2.97;;
25435;SDS011;13363;52.772;-3.890;2022-08-21T01:16:48;15.80;;;3.70;;
25435;SDS011;13363;52.772;-3.890;2022-08-21T01:19:17;17.57;;;3.93;;
25435;SDS011;13363;52.772;-3.890;2022-08-21T01:21:45;14.17;;;3.30;;
25435;SDS011;13363;52.772;-3.890;2022-08-21T01:24:11;16.07;;;3.23;;
25435;SDS011;13363;52.772;-3.890;2022-08-21T01:26:38;15.17;;;3.27;;
25435;SDS011;13363;52.772;-3.890;2022-08-21T01:29:06;12.60;;;2.90;;
25435;SDS011;13363;52.772;-3.890;2022-08-21T01:31:51;14.03;;;3.70;;
25435;SDS011;13363;52.772;-3.890;2022-08-21T01:34:17;20.70;;;3.67;;
25435;SDS011;13363;52.772;-3.890;2022-08-21T01:36:44;24.03;;;4.07;;
25435;SDS011;13363;52.772;-3.890;2022-08-21T01:39:11;15.77;;;3.17;;
25435;SDS011;13363;52.772;-3.890;2022-08-21T01:41:37;11.37;;;3.13;;
25435;SDS011;13363;52.772;-3.890;2022-08-21T01:44:03;18.80;;;3.50;;
25435;SDS011;13363;52.772;-3.890;2022-08-21T01:46:30;11.47;;;3.30;;
25435;SDS011;13363;52.772;-3.890;2022-08-21T01:48:56;14.70;;;3.40;;
25435;SDS011;13363;52.772;-3.890;2022-08-21T01:51:22;17.83;;;3.00;;
25435;SDS011;13363;52.772;-3.890;2022-08-21T01:53:48;13.20;;;3.70;;
25435;SDS011;13363;52.772;-3.890;2022-08-21T01:56:15;17.40;;;4.23;;
25435;SDS011;13363;52.772;-3.890;2022-08-21T01:58:42;13.70;;;3.57;;
25435;SDS011;13363;52.772;-3.890;2022-08-21T02:01:09;17.27;;;4.50;;
25435;SDS011;13363;52.772;-3.890;2022-08-21T02:03:35;18.83;;;4.03;;
25435;SDS011;13363;52.772;-3.890;2022-08-21T02:06:05;16.80;;;3.77;;
25435;SDS011;13363;52.772;-3.890;2022-08-21T02:08:32;16.93;;;3.27;;
25435;SDS011;13363;52.772;-3.890;2022-08-21T02:10:58;15.93;;;3.40;;
25435;SDS011;13363;52.772;-3.890;2022-08-21T02:13:24;11.37;;;3.43;;
25435;SDS011;13363;52.772;-3.890;2022-08-21T02:15:51;16.40;;;4.00;;
25435;SDS011;13363;52.772;-3.890;2022-08-21T02:18:17;19.90;;;3.60;;
25435;SDS011;13363;52.772;-3.890;2022-08-21T02:20:44;16.63;;;3.63;;
25435;SDS011;13363;52.772;-3.890;2022-08-21T02:23:12;20.07;;;3.63;;
25435;SDS011;13363;52.772;-3.890;2022-08-21T02:25:39;18.40;;;3.67;;
25435;SDS011;13363;52.772;-3.890;2022-08-21T02:28:06;25.73;;;4.27;;
25435;SDS011;13363;52.772;-3.890;2022-08-21T02:30:42;10.63;;;3.30;;
25435;SDS011;13363;52.772;-3.890;2022-08-21T02:33:20;17.40;;;3.40;;
25435;SDS011;13363;52.772;-3.890;2022-08-21T02:35:47;18.20;;;3.87;;
25435;SDS011;13363;52.772;-3.890;2022-08-21T02:38:15;18.60;;;4.43;;
25435;SDS011;13363;52.772;-3.890;2022-08-21T02:40:45;22.50;;;4.03;;
25435;SDS011;13363;52.772;-3.890;2022-08-21T02:43:12;18.00;;;4.07;;
25435;SDS011;13363;52.772;-3.890;2022-08-21T02:45:42;18.03;;;4.13;;
25435;SDS011;13363;52.772;-3.890;2022-08-21T02:48:10;14.30;;;3.90;;
25435;SDS011;13363;52.772;-3.890;2022-08-21T02:50:39;16.03;;;3.43;;
25435;SDS011;13363;52.772;-3.890;2022-08-21T02:53:07;15.63;;;3.80;;
25435;SDS011;13363;52.772;-3.890;2022-08-21T02:55:35;15.63;;;3.60;;
25435;SDS011;13363;52.772;-3.890;2022-08-21T02:58:04;11.37;;;3.87;;
25435;SDS011;13363;52.772;-3.890;2022-08-21T03:00:33;17.37;;;4.33;;
25435;SDS011;13363;52.772;-3.890;2022-08-21T03:03:00;12.80;;;3.63;;
25435;SDS011;13363;52.772;-3.890;2022-08-21T03:05:28;15.63;;;3.73;;
25435;SDS011;13363;52.772;-3.890;2022-08-21T03:07:56;14.30;;;3.93;;
25435;SDS011;13363;52.772;-3.890;2022-08-21T03:10:23;17.60;;;4.33;;
25435;SDS011;13363;52.772;-3.890;2022-08-21T03:12:50;18.07;;;3.63;;
25435;SDS011;13363;52.772;-3.890;2022-08-21T03:15:17;19.33;;;4.00;;
25435;SDS011;13363;52.772;-3.890;2022-08-21T03:17:45;20.07;;;4.40;;
25435;SDS011;13363;52.772;-3.890;2022-08-21T03:20:13;19.60;;;4.03;;
25435;SDS011;13363;52.772;-3.890;2022-08-21T03:22:41;15.67;;;3.67;;
25435;SDS011;13363;52.772;-3.890;2022-08-21T03:25:07;13.43;;;4.40;;
25435;SDS011;13363;52.772;-3.890;2022-08-21T03:27:33;19.70;;;4.27;;
25435;SDS011;13363;52.772;-3.890;2022-08-21T03:30:00;22.10;;;4.33;;
25435;SDS011;13363;52.772;-3.890;2022-08-21T03:32:28;18.20;;;4.50;;
25435;SDS011;13363;52.772;-3.890;2022-08-21T03:34:55;20.03;;;4.47;;
25435;SDS011;13363;52.772;-3.890;2022-08-21T03:37:21;17.57;;;4.07;;
25435;SDS011;13363;52.772;-3.890;2022-08-21T03:39:47;27.23;;;4.30;;
25435;SDS011;13363;52.772;-3.890;2022-08-21T03:42:12;25.70;;;4.27;;
25435;SDS011;13363;52.772;-3.890;2022-08-21T03:44:38;21.70;;;4.53;;
25435;SDS011;13363;52.772;-3.890;2022-08-21T03:47:04;18.87;;;4.30;;
25435;SDS011;13363;52.772;-3.890;2022-08-21T03:49:31;12.27;;;3.73;;
25435;SDS011;13363;52.772;-3.890;2022-08-21T03:51:58;15.27;;;4.37;;
25435;SDS011;13363;52.772;-3.890;2022-08-21T03:54:25;18.33;;;4.13;;
25435;SDS011;13363;52.772;-3.890;2022-08-21T03:56:51;19.40;;;4.03;;
25435;SDS011;13363;52.772;-3.890;2022-08-21T03:59:17;18.13;;;3.50;;
25435;SDS011;13363;52.772;-3.890;2022-08-21T04:01:56;14.23;;;4.37;;
25435;SDS011;13363;52.772;-3.890;2022-08-21T04:04:23;17.43;;;3.97;;
25435;SDS011;13363;52.772;-3.890;2022-08-21T04:06:50;13.03;;;4.00;;
25435;SDS011;13363;52.772;-3.890;2022-08-21T04:09:16;15.43;;;3.60;;
25435;SDS011;13363;52.772;-3.890;2022-08-21T04:11:43;13.80;;;3.93;;
25435;SDS011;13363;52.772;-3.890;2022-08-21T04:14:10;15.63;;;3.73;;
25435;SDS011;13363;52.772;-3.890;2022-08-21T04:16:37;23.37;;;4.30;;
25435;SDS011;13363;52.772;-3.890;2022-08-21T04:19:03;18.77;;;4.13;;
25435;SDS011;13363;52.772;-3.890;2022-08-21T04:21:29;15.57;;;4.10;;
25435;SDS011;13363;52.772;-3.890;2022-08-21T04:23:56;11.57;;;4.23;;
25435;SDS011;13363;52.772;-3.890;2022-08-21T04:26:23;15.13;;;4.23;;
25435;SDS011;13363;52.772;-3.890;2022-08-21T04:28:49;18.10;;;4.10;;
25435;SDS011;13363;52.772;-3.890;2022-08-21T04:31:15;20.23;;;4.73;;
25435;SDS011;13363;52.772;-3.890;2022-08-21T04:33:41;12.50;;;3.97;;
25435;SDS011;13363;52.772;-3.890;2022-08-21T04:36:07;15.63;;;3.90;;
25435;SDS011;13363;52.772;-3.890;2022-08-21T04:38:33;19.13;;;4.13;;
25435;SDS011;13363;52.772;-3.890;2022-08-21T04:41:00;12.97;;;4.07;;
25435;SDS011;13363;52.772;-3.890;2022-08-21T04:43:30;19.20;;;4.23;;
25435;SDS011;13363;52.772;-3.890;2022-08-21T04:45:56;13.43;;;4.27;;
25435;SDS011;13363;52.772;-3.890;2022-08-21T04:48:22;14.63;;;4.07;;
25435;SDS011;13363;52.772;-3.890;2022-08-21T04:53:19;14.47;;;3.97;;
25435;SDS011;13363;52.772;-3.890;2022-08-21T04:55:49;16.20;;;4.23;;
25435;SDS011;13363;52.772;-3.890;2022-08-21T04:58:18;19.10;;;4.13;;
25435;SDS011;13363;52.772;-3.890;2022-08-21T05:00:46;13.17;;;3.93;;
25435;SDS011;13363;52.772;-3.890;2022-08-21T05:03:14;9.13;;;3.57;;
25435;SDS011;13363;52.772;-3.890;2022-08-21T05:05:42;15.97;;;4.07;;
25435;SDS011;13363;52.772;-3.890;2022-08-21T05:08:09;14.27;;;3.70;;
25435;SDS011;13363;52.772;-3.890;2022-08-21T05:10:39;21.47;;;3.90;;
25435;SDS011;13363;52.772;-3.890;2022-08-21T05:13:05;17.47;;;4.30;;
25435;SDS011;13363;52.772;-3.890;2022-08-21T05:15:32;14.37;;;3.90;;
25435;SDS011;13363;52.772;-3.890;2022-08-21T05:17:57;13.40;;;3.90;;
25435;SDS011;13363;52.772;-3.890;2022-08-21T05:20:23;14.07;;;4.33;;
25435;SDS011;13363;52.772;-3.890;2022-08-21T05:22:49;16.80;;;3.70;;
25435;SDS011;13363;52.772;-3.890;2022-08-21T05:25:15;13.70;;;3.70;;
25435;SDS011;13363;52.772;-3.890;2022-08-21T05:27:41;12.17;;;3.80;;
25435;SDS011;13363;52.772;-3.890;2022-08-21T05:30:08;8.77;;;3.33;;
25435;SDS011;13363;52.772;-3.890;2022-08-21T05:32:35;10.93;;;2.60;;
25435;SDS011;13363;52.772;-3.890;2022-08-21T05:35:02;7.43;;;2.70;;
25435;SDS011;13363;52.772;-3.890;2022-08-21T05:37:29;8.67;;;3.13;;
25435;SDS011;13363;52.772;-3.890;2022-08-21T05:39:55;8.53;;;2.77;;
25435;SDS011;13363;52.772;-3.890;2022-08-21T05:42:21;5.97;;;2.77;;
25435;SDS011;13363;52.772;-3.890;2022-08-21T05:44:47;10.43;;;2.93;;
25435;SDS011;13363;52.772;-3.890;2022-08-21T05:47:13;7.60;;;3.07;;
25435;SDS011;13363;52.772;-3.890;2022-08-21T05:49:38;3.63;;;2.23;;
25435;SDS011;13363;52.772;-3.890;2022-08-21T05:52:04;8.23;;;2.50;;
25435;SDS011;13363;52.772;-3.890;2022-08-21T05:54:30;6.63;;;2.70;;
25435;SDS011;13363;52.772;-3.890;2022-08-21T05:56:56;6.90;;;2.77;;
25435;SDS011;13363;52.772;-3.890;2022-08-21T05:59:23;8.23;;;2.73;;
25435;SDS011;13363;52.772;-3.890;2022-08-21T06:01:49;7.30;;;2.70;;
25435;SDS011;13363;52.772;-3.890;2022-08-21T06:04:17;4.03;;;2.50;;
25435;SDS011;13363;52.772;-3.890;2022-08-21T06:06:43;7.57;;;2.53;;
25435;SDS011;13363;52.772;-3.890;2022-08-21T06:09:09;8.40;;;3.17;;
25435;SDS011;13363;52.772;-3.890;2022-08-21T06:11:35;3.73;;;2.40;;
25435;SDS011;13363;52.772;-3.890;2022-08-21T06:14:01;3.10;;;2.50;;
25435;SDS011;13363;52.772;-3.890;2022-08-21T06:16:27;3.63;;;2.43;;
25435;SDS011;13363;52.772;-3.890;2022-08-21T06:18:53;5.33;;;2.63;;
25435;SDS011;13363;52.772;-3.890;2022-08-21T06:21:19;7.23;;;3.10;;
25435;SDS011;13363;52.772;-3.890;2022-08-21T06:23:45;10.33;;;2.43;;
25435;SDS011;13363;52.772;-3.890;2022-08-21T06:26:11;6.63;;;2.90;;
25435;SDS011;13363;52.772;-3.890;2022-08-21T06:28:38;8.77;;;2.60;;
25435;SDS011;13363;52.772;-3.890;2022-08-21T06:31:15;5.67;;;2.37;;
25435;SDS011;13363;52.772;-3.890;2022-08-21T06:33:47;5.20;;;2.60;;
25435;SDS011;13363;52.772;-3.890;2022-08-21T06:36:13;3.73;;;2.37;;
25435;SDS011;13363;52.772;-3.890;2022-08-21T06:38:39;9.03;;;2.67;;
25435;SDS011;13363;52.772;-3.890;2022-08-21T06:41:05;4.80;;;2.53;;
25435;SDS011;13363;52.772;-3.890;2022-08-21T06:43:32;3.53;;;2.37;;
25435;SDS011;13363;52.772;-3.890;2022-08-21T06:45:57;5.90;;;2.50;;
25435;SDS011;13363;52.772;-3.890;2022-08-21T06:48:25;3.10;;;2.30;;
25435;SDS011;13363;52.772;-3.890;2022-08-21T06:50:51;7.23;;;2.30;;
25435;SDS011;13363;52.772;-3.890;2022-08-21T06:53:18;5.83;;;2.70;;
25435;SDS011;13363;52.772;-3.890;2022-08-21T06:55:46;3.67;;;2.40;;
25435;SDS011;13363;52.772;-3.890;2022-08-21T06:58:13;5.73;;;2.60;;
25435;SDS011;13363;52.772;-3.890;2022-08-21T07:00:40;5.30;;;2.30;;
25435;SDS011;13363;52.772;-3.890;2022-08-21T07:03:07;3.80;;;2.20;;
25435;SDS011;13363;52.772;-3.890;2022-08-21T07:05:45;6.60;;;2.50;;
25435;SDS011;13363;52.772;-3.890;2022-08-21T07:08:11;4.13;;;2.30;;
25435;SDS011;13363;52.772;-3.890;2022-08-21T07:10:37;4.20;;;2.70;;
25435;SDS011;13363;52.772;-3.890;2022-08-21T07:13:07;2.97;;;2.63;;
25435;SDS011;13363;52.772;-3.890;2022-08-21T07:15:35;2.73;;;1.97;;
25435;SDS011;13363;52.772;-3.890;2022-08-21T07:18:12;5.13;;;2.40;;
25435;SDS011;13363;52.772;-3.890;2022-08-21T07:20:42;3.17;;;2.43;;
25435;SDS011;13363;52.772;-3.890;2022-08-21T07:26:17;4.83;;;2.10;;
25435;SDS011;13363;52.772;-3.890;2022-08-21T07:28:49;4.03;;;2.33;;
25435;SDS011;13363;52.772;-3.890;2022-08-21T07:31:18;3.80;;;2.10;;
25435;SDS011;13363;52.772;-3.890;2022-08-21T07:33:49;5.27;;;2.43;;
25435;SDS011;13363;52.772;-3.890;2022-08-21T07:36:19;6.17;;;2.20;;
25435;SDS011;13363;52.772;-3.890;2022-08-21T07:38:47;6.63;;;2.30;;
25435;SDS011;13363;52.772;-3.890;2022-08-21T07:41:19;4.77;;;2.20;;
25435;SDS011;13363;52.772;-3.890;2022-08-21T07:43:56;3.73;;;2.20;;
25435;SDS011;13363;52.772;-3.890;2022-08-21T07:46:25;4.70;;;2.00;;
25435;SDS011;13363;52.772;-3.890;2022-08-21T07:48:55;6.07;;;2.40;;
25435;SDS011;13363;52.772;-3.890;2022-08-21T07:51:25;4.77;;;2.20;;
25435;SDS011;13363;52.772;-3.890;2022-08-21T07:53:58;6.37;;;2.27;;
25435;SDS011;13363;52.772;-3.890;2022-08-21T07:56:31;8.57;;;2.47;;
25435;SDS011;13363;52.772;-3.890;2022-08-21T07:59:06;5.63;;;2.23;;
25435;SDS011;13363;52.772;-3.890;2022-08-21T08:01:38;4.70;;;2.20;;
25435;SDS011;13363;52.772;-3.890;2022-08-21T08:04:11;5.47;;;2.80;;
25435;SDS011;13363;52.772;-3.890;2022-08-21T08:06:42;5.43;;;2.30;;
25435;SDS011;13363;52.772;-3.890;2022-08-21T08:09:12;4.13;;;1.90;;
25435;SDS011;13363;52.772;-3.890;2022-08-21T08:11:43;4.00;;;2.10;;
25435;SDS011;13363;52.772;-3.890;2022-08-21T08:14:14;4.83;;;2.50;;
25435;SDS011;13363;52.772;-3.890;2022-08-21T08:16:42;4.53;;;2.40;;
25435;SDS011;13363;52.772;-3.890;2022-08-21T08:19:09;5.23;;;2.47;;
25435;SDS011;13363;52.772;-3.890;2022-08-21T08:21:36;5.93;;;2.33;;
25435;SDS011;13363;52.772;-3.890;2022-08-21T08:24:03;5.37;;;2.10;;
25435;SDS011;13363;52.772;-3.890;2022-08-21T08:26:36;5.80;;;2.43;;
25435;SDS011;13363;52.772;-3.890;2022-08-21T08:29:03;5.63;;;2.00;;
25435;SDS011;13363;52.772;-3.890;2022-08-21T08:31:29;7.80;;;2.80;;
25435;SDS011;13363;52.772;-3.890;2022-08-21T08:33:55;5.53;;;2.30;;
25435;SDS011;13363;52.772;-3.890;2022-08-21T08:36:21;6.30;;;2.23;;
25435;SDS011;13363;52.772;-3.890;2022-08-21T08:39:00;5.90;;;2.40;;
25435;SDS011;13363;52.772;-3.890;2022-08-21T08:41:28;6.07;;;2.27;;
25435;SDS011;13363;52.772;-3.890;2022-08-21T08:43:57;4.27;;;1.97;;
25435;SDS011;13363;52.772;-3.890;2022-08-21T08:46:45;6.17;;;2.67;;
25435;SDS011;13363;52.772;-3.890;2022-08-21T08:54:37;4.30;;;2.30;;
25435;SDS011;13363;52.772;-3.890;2022-08-21T08:57:07;4.33;;;2.20;;
25435;SDS011;13363;52.772;-3.890;2022-08-21T08:59:42;3.37;;;1.97;;
25435;SDS011;13363;52.772;-3.890;2022-08-21T09:02:12;7.70;;;2.37;;
25435;SDS011;13363;52.772;-3.890;2022-08-21T09:04:39;5.60;;;2.27;;
25435;SDS011;13363;52.772;-3.890;2022-08-21T09:07:12;3.23;;;2.33;;
25435;SDS011;13363;52.772;-3.890;2022-08-21T09:14:54;3.97;;;2.20;;
25435;SDS011;13363;52.772;-3.890;2022-08-21T09:20:17;6.53;;;2.20;;
25435;SDS011;13363;52.772;-3.890;2022-08-21T09:28:19;4.20;;;2.47;;
25435;SDS011;13363;52.772;-3.890;2022-08-21T09:30:45;4.10;;;2.10;;
25435;SDS011;13363;52.772;-3.890;2022-08-21T09:33:11;5.17;;;2.27;;
25435;SDS011;13363;52.772;-3.890;2022-08-21T09:35:48;7.63;;;2.17;;
25435;SDS011;13363;52.772;-3.890;2022-08-21T09:38:27;5.97;;;2.43;;
25435;SDS011;13363;52.772;-3.890;2022-08-21T09:40:58;3.43;;;2.03;;
25435;SDS011;13363;52.772;-3.890;2022-08-21T09:43:27;4.33;;;2.30;;
25435;SDS011;13363;52.772;-3.890;2022-08-21T09:46:27;4.33;;;2.30;;
25435;SDS011;13363;52.772;-3.890;2022-08-21T09:48:49;2.20;;;1.90;;
25435;SDS011;13363;52.772;-3.890;2022-08-21T09:51:18;4.80;;;2.13;;
25435;SDS011;13363;52.772;-3.890;2022-08-21T09:54:12;5.37;;;2.30;;
25435;SDS011;13363;52.772;-3.890;2022-08-21T09:56:52;3.77;;;1.97;;
25435;SDS011;13363;52.772;-3.890;2022-08-21T09:59:37;2.90;;;2.20;;
25435;SDS011;13363;52.772;-3.890;2022-08-21T10:02:19;6.13;;;2.40;;
25435;SDS011;13363;52.772;-3.890;2022-08-21T10:04:50;5.43;;;2.27;;
25435;SDS011;13363;52.772;-3.890;2022-08-21T10:07:20;4.57;;;1.80;;
25435;SDS011;13363;52.772;-3.890;2022-08-21T10:10:05;5.13;;;1.80;;
25435;SDS011;13363;52.772;-3.890;2022-08-21T10:15:38;8.30;;;2.30;;
25435;SDS011;13363;52.772;-3.890;2022-08-21T10:21:39;5.30;;;2.40;;
25435;SDS011;13363;52.772;-3.890;2022-08-21T10:24:33;6.90;;;2.50;;
25435;SDS011;13363;52.772;-3.890;2022-08-21T10:35:21;6.47;;;2.40;;
25435;SDS011;13363;52.772;-3.890;2022-08-21T10:43:45;6.47;;;2.53;;
25435;SDS011;13363;52.772;-3.890;2022-08-21T10:46:47;7.73;;;2.40;;
25435;SDS011;13363;52.772;-3.890;2022-08-21T10:49:37;3.57;;;2.50;;
25435;SDS011;13363;52.772;-3.890;2022-08-21T10:54:59;6.60;;;2.63;;
25435;SDS011;13363;52.772;-3.890;2022-08-21T11:00:26;8.70;;;2.50;;
25435;SDS011;13363;52.772;-3.890;2022-08-21T11:03:05;5.03;;;2.50;;
25435;SDS011;13363;52.772;-3.890;2022-08-21T11:08:10;5.90;;;2.60;;
25435;SDS011;13363;52.772;-3.890;2022-08-21T11:10:46;3.97;;;2.07;;
25435;SDS011;13363;52.772;-3.890;2022-08-21T11:13:19;4.23;;;2.30;;
25435;SDS011;13363;52.772;-3.890;2022-08-21T11:15:56;4.63;;;2.13;;
25435;SDS011;13363;52.772;-3.890;2022-08-21T11:18:41;4.33;;;1.90;;
25435;SDS011;13363;52.772;-3.890;2022-08-21T11:23:50;4.70;;;2.20;;
25435;SDS011;13363;52.772;-3.890;2022-08-21T11:26:37;5.30;;;2.53;;
25435;SDS011;13363;52.772;-3.890;2022-08-21T11:29:18;4.27;;;2.20;;
25435;SDS011;13363;52.772;-3.890;2022-08-21T11:32:01;4.43;;;2.47;;
25435;SDS011;13363;52.772;-3.890;2022-08-21T11:34:35;4.43;;;2.13;;
25435;SDS011;13363;52.772;-3.890;2022-08-21T11:40:38;4.17;;;2.20;;
25435;SDS011;13363;52.772;-3.890;2022-08-21T11:46:17;3.77;;;2.07;;
25435;SDS011;13363;52.772;-3.890;2022-08-21T11:54:56;4.27;;;2.40;;
25435;SDS011;13363;52.772;-3.890;2022-08-21T11:57:30;6.93;;;2.67;;
25435;SDS011;13363;52.772;-3.890;2022-08-21T12:00:22;5.77;;;2.20;;
25435;SDS011;13363;52.772;-3.890;2022-08-21T12:03:08;4.10;;;2.20;;
25435;SDS011;13363;52.772;-3.890;2022-08-21T12:05:53;3.47;;;2.00;;
25435;SDS011;13363;52.772;-3.890;2022-08-21T12:08:42;7.77;;;2.77;;
25435;SDS011;13363;52.772;-3.890;2022-08-21T12:11:20;3.77;;;2.00;;
25435;SDS011;13363;52.772;-3.890;2022-08-21T12:16:35;6.00;;;2.40;;
25435;SDS011;13363;52.772;-3.890;2022-08-21T12:19:03;5.83;;;2.20;;
25435;SDS011;13363;52.772;-3.890;2022-08-21T12:21:31;3.07;;;2.17;;
25435;SDS011;13363;52.772;-3.890;2022-08-21T12:26:49;6.03;;;2.53;;
25435;SDS011;13363;52.772;-3.890;2022-08-21T12:29:23;7.10;;;1.87;;
25435;SDS011;13363;52.772;-3.890;2022-08-21T12:34:48;4.63;;;2.60;;
25435;SDS011;13363;52.772;-3.890;2022-08-21T12:37:20;6.97;;;2.53;;
25435;SDS011;13363;52.772;-3.890;2022-08-21T12:40:14;5.90;;;2.20;;
25435;SDS011;13363;52.772;-3.890;2022-08-21T12:42:54;6.50;;;2.10;;
25435;SDS011;13363;52.772;-3.890;2022-08-21T12:45:31;2.90;;;2.03;;
25435;SDS011;13363;52.772;-3.890;2022-08-21T12:51:12;6.70;;;2.57;;
25435;SDS011;13363;52.772;-3.890;2022-08-21T12:56:26;4.40;;;1.90;;
25435;SDS011;13363;52.772;-3.890;2022-08-21T12:59:00;3.10;;;2.10;;
25435;SDS011;13363;52.772;-3.890;2022-08-21T13:01:31;5.73;;;2.07;;
25435;SDS011;13363;52.772;-3.890;2022-08-21T13:04:07;3.37;;;2.03;;
25435;SDS011;13363;52.772;-3.890;2022-08-21T13:06:39;4.90;;;2.10;;
25435;SDS011;13363;52.772;-3.890;2022-08-21T13:09:08;6.83;;;2.10;;
25435;SDS011;13363;52.772;-3.890;2022-08-21T13:11:39;7.50;;;2.43;;
25435;SDS011;13363;52.772;-3.890;2022-08-21T13:14:13;6.40;;;3.23;;
25435;SDS011;13363;52.772;-3.890;2022-08-21T13:16:46;5.60;;;2.37;;
25435;SDS011;13363;52.772;-3.890;2022-08-21T13:19:15;6.47;;;2.60;;
25435;SDS011;13363;52.772;-3.890;2022-08-21T13:21:43;7.40;;;1.80;;
25435;SDS011;13363;52.772;-3.890;2022-08-21T13:26:44;4.57;;;2.10;;
25435;SDS011;13363;52.772;-3.890;2022-08-21T13:29:12;6.33;;;2.17;;
25435;SDS011;13363;52.772;-3.890;2022-08-21T13:31:40;4.33;;;2.03;;
25435;SDS011;13363;52.772;-3.890;2022-08-21T13:34:12;7.77;;;2.17;;
25435;SDS011;13363;52.772;-3.890;2022-08-21T13:36:41;3.60;;;1.80;;
25435;SDS011;13363;52.772;-3.890;2022-08-21T13:39:08;3.60;;;2.07;;
25435;SDS011;13363;52.772;-3.890;2022-08-21T13:41:37;2.70;;;2.43;;
25435;SDS011;13363;52.772;-3.890;2022-08-21T13:44:23;9.20;;;2.37;;
25435;SDS011;13363;52.772;-3.890;2022-08-21T13:47:00;3.67;;;2.30;;
25435;SDS011;13363;52.772;-3.890;2022-08-21T13:49:29;10.63;;;2.40;;
25435;SDS011;13363;52.772;-3.890;2022-08-21T13:52:01;6.40;;;2.00;;
25435;SDS011;13363;52.772;-3.890;2022-08-21T13:57:14;6.03;;;1.93;;
25435;SDS011;13363;52.772;-3.890;2022-08-21T14:00:11;7.03;;;2.10;;
25435;SDS011;13363;52.772;-3.890;2022-08-21T14:02:59;3.27;;;2.07;;
25435;SDS011;13363;52.772;-3.890;2022-08-21T14:05:32;6.33;;;2.27;;
25435;SDS011;13363;52.772;-3.890;2022-08-21T14:08:06;6.27;;;2.60;;
25435;SDS011;13363;52.772;-3.890;2022-08-21T14:10:44;2.17;;;1.97;;
25435;SDS011;13363;52.772;-3.890;2022-08-21T14:13:28;4.80;;;1.70;;
25435;SDS011;13363;52.772;-3.890;2022-08-21T14:15:56;3.90;;;1.93;;
25435;SDS011;13363;52.772;-3.890;2022-08-21T14:18:23;4.80;;;1.87;;
25435;SDS011;13363;52.772;-3.890;2022-08-21T14:20:51;3.40;;;2.00;;
25435;SDS011;13363;52.772;-3.890;2022-08-21T14:23:28;3.20;;;2.30;;
25435;SDS011;13363;52.772;-3.890;2022-08-21T14:25:54;9.93;;;2.23;;
25435;SDS011;13363;52.772;-3.890;2022-08-21T14:28:30;4.23;;;2.23;;
25435;SDS011;13363;52.772;-3.890;2022-08-21T14:30:58;6.43;;;2.00;;
25435;SDS011;13363;52.772;-3.890;2022-08-21T14:33:37;4.60;;;2.15;;
25435;SDS011;13363;52.772;-3.890;2022-08-21T14:36:03;3.37;;;1.90;;
25435;SDS011;13363;52.772;-3.890;2022-08-21T14:38:29;7.30;;;2.00;;
25435;SDS011;13363;52.772;-3.890;2022-08-21T14:41:08;3.23;;;2.10;;
25435;SDS011;13363;52.772;-3.890;2022-08-21T14:43:40;4.25;;;1.98;;
25435;SDS011;13363;52.772;-3.890;2022-08-21T14:46:07;6.23;;;2.10;;
25435;SDS011;13363;52.772;-3.890;2022-08-21T14:48:33;5.23;;;2.00;;
25435;SDS011;13363;52.772;-3.890;2022-08-21T14:50:59;3.97;;;2.13;;
25435;SDS011;13363;52.772;-3.890;2022-08-21T14:56:12;5.27;;;1.87;;
25435;SDS011;13363;52.772;-3.890;2022-08-21T14:58:41;4.55;;;1.90;;
25435;SDS011;13363;52.772;-3.890;2022-08-21T15:01:09;4.05;;;1.83;;
25435;SDS011;13363;52.772;-3.890;2022-08-21T15:03:37;3.55;;;1.90;;
25435;SDS011;13363;52.772;-3.890;2022-08-21T15:06:04;4.60;;;2.10;;
25435;SDS011;13363;52.772;-3.890;2022-08-21T15:08:31;3.08;;;1.58;;
25435;SDS011;13363;52.772;-3.890;2022-08-21T15:10:57;2.90;;;1.75;;
25435;SDS011;13363;52.772;-3.890;2022-08-21T15:13:25;3.33;;;1.87;;
25435;SDS011;13363;52.772;-3.890;2022-08-21T15:15:51;2.72;;;1.70;;
25435;SDS011;13363;52.772;-3.890;2022-08-21T15:18:21;4.10;;;1.75;;
25435;SDS011;13363;52.772;-3.890;2022-08-21T15:20:49;2.55;;;1.83;;
25435;SDS011;13363;52.772;-3.890;2022-08-21T15:23:16;3.03;;;1.70;;
25435;SDS011;13363;52.772;-3.890;2022-08-21T15:25:43;2.88;;;1.70;;
25435;SDS011;13363;52.772;-3.890;2022-08-21T15:28:11;4.30;;;1.60;;
25435;SDS011;13363;52.772;-3.890;2022-08-21T15:30:38;5.80;;;2.07;;
25435;SDS011;13363;52.772;-3.890;2022-08-21T15:33:04;1.92;;;1.38;;
25435;SDS011;13363;52.772;-3.890;2022-08-21T15:35:30;5.05;;;1.70;;
25435;SDS011;13363;52.772;-3.890;2022-08-21T15:37:57;4.55;;;1.80;;
25435;SDS011;13363;52.772;-3.890;2022-08-21T15:40:23;4.30;;;1.50;;
25435;SDS011;13363;52.772;-3.890;2022-08-21T15:42:50;3.53;;;1.67;;
25435;SDS011;13363;52.772;-3.890;2022-08-21T15:45:20;1.50;;;1.40;;
25435;SDS011;13363;52.772;-3.890;2022-08-21T15:47:46;3.07;;;1.40;;
25435;SDS011;13363;52.772;-3.890;2022-08-21T15:50:15;2.13;;;1.20;;
25435;SDS011;13363;52.772;-3.890;2022-08-21T15:52:41;2.63;;;1.40;;
25435;SDS011;13363;52.772;-3.890;2022-08-21T15:55:07;1.10;;;1.03;;
25435;SDS011;13363;52.772;-3.890;2022-08-21T15:57:35;3.87;;;1.20;;
25435;SDS011;13363;52.772;-3.890;2022-08-21T16:00:04;1.70;;;1.00;;
25435;SDS011;13363;52.772;-3.890;2022-08-21T16:02:38;1.43;;;1.33;;
25435;SDS011;13363;52.772;-3.890;2022-08-21T16:05:06;1.60;;;0.90;;
25435;SDS011;13363;52.772;-3.890;2022-08-21T16:07:35;1.00;;;1.00;;
25435;SDS011;13363;52.772;-3.890;2022-08-21T16:10:02;1.27;;;1.17;;
25435;SDS011;13363;52.772;-3.890;2022-08-21T16:15:22;1.77;;;1.00;;
25435;SDS011;13363;52.772;-3.890;2022-08-21T16:17:49;2.37;;;1.10;;
25435;SDS011;13363;52.772;-3.890;2022-08-21T16:20:18;1.03;;;0.77;;